createdAt,value
2023-01-10T03:41:19.998Z,84.30
2023-01-10T03:55:55.122Z,84.52
2023-01-10T05:54:10.747Z,87.94
2023-01-10T05:59:39.216Z,87.89
2023-01-10T06:02:06.029Z,87.63
2023-01-10T06:04:35.143Z,88.19
2023-01-10T06:07:01.958Z,88.00
2023-01-10T06:09:28.636Z,87.83
2023-01-10T06:11:55.925Z,87.97
2023-01-10T06:14:26.927Z,88.10
2023-01-10T06:16:53.677Z,88.25
2023-01-10T06:19:20.414Z,88.18
2023-01-10T06:21:47.122Z,88.17
2023-01-10T06:24:13.844Z,88.20
2023-01-10T06:26:44.145Z,88.07
2023-01-10T06:29:47.458Z,88.04
2023-01-10T06:32:14.847Z,88.10
2023-01-10T06:34:49.208Z,87.84
2023-01-10T06:37:24.848Z,88.11
2023-01-10T06:40:12.164Z,88.17
2023-01-10T06:43:43.007Z,88.12
2023-01-10T06:46:13.461Z,88.16
2023-01-10T06:48:53.909Z,88.05
2023-01-10T06:51:45.006Z,88.20
2023-01-10T06:54:21.179Z,88.01
2023-01-10T06:56:49.061Z,87.96
2023-01-10T06:59:15.842Z,88.05
2023-01-10T07:01:42.662Z,88.09
2023-01-10T07:04:09.530Z,88.08
2023-01-10T07:06:37.655Z,88.08
2023-01-10T07:09:05.932Z,88.23
2023-01-10T07:11:38.819Z,88.32
2023-01-10T07:14:09.903Z,88.05
2023-01-10T07:16:36.718Z,88.26
2023-01-10T07:19:03.559Z,87.78
2023-01-10T07:21:30.296Z,87.97
2023-01-10T07:23:57.015Z,87.97
2023-01-10T07:26:24.467Z,88.16
2023-01-10T07:28:51.519Z,87.99
2023-01-10T07:31:20.198Z,88.02
2023-01-10T07:33:47.058Z,87.86
2023-01-10T07:36:14.150Z,88.14
2023-01-10T07:38:40.998Z,87.69
2023-01-10T07:41:07.823Z,87.82
2023-01-10T07:43:34.718Z,87.75
2023-01-10T07:46:02.657Z,88.05
2023-01-10T07:48:32.182Z,88.02
2023-01-10T07:51:00.739Z,87.93
2023-01-10T07:53:28.866Z,87.80
2023-01-10T07:55:59.944Z,87.53
2023-01-10T07:58:27.171Z,87.60
2023-01-10T08:01:00.511Z,87.81
2023-01-10T08:08:35.270Z,87.63
2023-01-10T08:11:55.138Z,87.45
2023-01-10T08:14:30.041Z,87.60
2023-01-10T08:17:05.232Z,87.42
2023-01-10T08:19:33.946Z,87.07
2023-01-10T08:22:11.127Z,87.17
2023-01-10T08:57:25.946Z,86.77
2023-01-10T09:00:04.170Z,86.81
2023-01-10T09:02:42.335Z,86.76
2023-01-10T09:05:26.405Z,86.74
2023-01-10T09:08:29.145Z,86.74
2023-01-10T09:18:09.477Z,86.37
2023-01-10T09:21:08.635Z,86.52
2023-01-10T09:28:24.945Z,86.57
2023-01-10T09:31:41.125Z,86.38
2023-01-10T09:35:00.041Z,86.43
2023-01-10T09:37:27.000Z,86.56
2023-01-10T09:40:23.092Z,86.36
2023-01-10T09:43:11.018Z,86.60
2023-01-10T09:46:19.481Z,86.51
2023-01-10T09:49:12.833Z,86.23
2023-01-10T09:52:01.545Z,86.31
2023-01-10T09:58:10.592Z,86.19
2023-01-10T10:01:05.385Z,86.12
2023-01-10T10:04:05.493Z,86.04
2023-01-10T10:07:20.580Z,85.97
2023-01-10T10:10:27.441Z,86.22
2023-01-10T10:14:00.941Z,85.79
2023-01-10T10:17:01.006Z,85.46
2023-01-10T10:19:40.394Z,85.66
2023-01-10T10:25:41.541Z,85.63
2023-01-10T10:28:55.265Z,85.51
2023-01-10T10:36:16.871Z,85.04
2023-01-10T10:42:03.562Z,84.82
2023-01-10T10:44:36.499Z,84.91
2023-01-10T10:47:03.440Z,84.67
2023-01-10T10:49:47.692Z,84.50
2023-01-10T10:52:20.351Z,84.71
2023-01-10T10:54:47.901Z,84.55
2023-01-10T10:57:14.833Z,84.57
2023-01-10T10:59:43.663Z,84.40
2023-01-10T11:02:22.368Z,84.17
2023-01-10T11:04:50.393Z,84.48
2023-01-10T11:07:18.605Z,84.54
2023-01-10T11:09:53.723Z,84.04
2023-01-10T11:12:28.766Z,84.25
2023-01-10T11:14:55.697Z,84.46
2023-01-10T11:17:31.358Z,83.94
2023-01-10T11:20:02.077Z,84.11
2023-01-10T11:22:31.722Z,84.08
2023-01-10T11:25:00.695Z,83.96
2023-01-10T11:27:30.172Z,83.87
2023-01-10T11:30:00.315Z,84.07
2023-01-10T11:32:33.126Z,83.75
2023-01-10T11:35:03.093Z,83.49
2023-01-10T11:37:34.543Z,83.59
2023-01-10T11:40:19.687Z,83.30
2023-01-10T11:42:47.629Z,83.20
2023-01-10T11:45:17.382Z,83.06
2023-01-10T11:47:47.284Z,82.77
2023-01-10T11:50:23.860Z,82.40
2023-01-10T11:52:51.113Z,82.06
2023-01-10T11:55:20.922Z,81.57
2023-01-10T11:57:56.078Z,81.26
2023-01-10T12:00:23.496Z,81.25
2023-01-10T12:02:52.673Z,81.11
2023-01-10T12:05:21.762Z,80.76
2023-01-10T12:08:06.492Z,80.55
2023-01-10T12:10:37.538Z,80.65
2023-01-10T12:13:14.896Z,80.54
2023-01-10T12:15:42.052Z,80.19
2023-01-10T12:18:11.010Z,80.25
2023-01-10T12:21:06.917Z,80.54
2023-01-10T12:23:38.557Z,80.18
2023-01-10T12:26:11.833Z,79.90
2023-01-10T12:28:43.067Z,80.19
2023-01-10T12:31:15.914Z,79.86
2023-01-10T12:34:13.599Z,79.93
2023-01-10T12:37:05.262Z,79.73
2023-01-10T12:44:11.521Z,79.61
2023-01-10T12:47:53.965Z,79.27
2023-01-10T12:50:55.125Z,79.03
2023-01-10T12:53:45.071Z,78.77
2023-01-10T12:56:25.657Z,78.61
2023-01-10T12:59:05.165Z,78.76
2023-01-10T13:02:06.301Z,78.26
2023-01-10T13:04:37.105Z,78.21
2023-01-10T13:07:11.697Z,77.90
2023-01-10T13:09:48.070Z,77.84
2023-01-10T13:12:37.185Z,77.97
2023-01-10T13:15:25.493Z,77.79
2023-01-10T13:18:15.993Z,77.95
2023-01-10T13:20:52.197Z,78.01
2023-01-10T13:23:41.388Z,78.00
2023-01-10T13:26:55.078Z,77.66
2023-01-10T13:29:49.611Z,78.14
2023-01-10T13:32:35.909Z,78.25
2023-01-10T13:35:42.740Z,78.13
2023-01-10T13:38:27.622Z,78.25
2023-01-10T13:41:02.650Z,78.20
2023-01-10T13:43:41.500Z,78.26
2023-01-10T13:46:16.456Z,78.38
2023-01-10T13:49:09.004Z,78.20
2023-01-10T13:51:36.435Z,78.24
2023-01-10T13:54:16.603Z,78.13
2023-01-10T13:56:44.700Z,78.31
2023-01-10T13:59:49.884Z,78.20
2023-01-10T14:02:31.764Z,78.28
2023-01-10T14:05:11.178Z,78.13
2023-01-10T14:07:51.733Z,78.45
2023-01-10T14:10:24.667Z,78.39
2023-01-10T14:13:09.559Z,78.44
2023-01-10T14:15:46.987Z,78.25
2023-01-10T14:18:40.122Z,78.16
2023-01-10T14:21:09.640Z,78.23
2023-01-10T14:23:44.149Z,77.97
2023-01-10T14:26:19.973Z,78.14
2023-01-10T14:28:54.858Z,78.02
2023-01-10T14:31:34.719Z,78.07
2023-01-10T14:34:24.294Z,78.44
2023-01-10T14:36:58.899Z,78.25
2023-01-10T14:39:26.791Z,78.27
2023-01-10T14:41:57.255Z,78.49
2023-01-10T14:44:36.238Z,78.77
2023-01-10T14:47:04.603Z,78.56
2023-01-10T14:49:35.401Z,78.55
2023-01-10T14:52:12.891Z,78.81
2023-01-10T14:54:39.805Z,78.74
2023-01-10T14:57:17.262Z,78.59
2023-01-10T14:59:44.010Z,78.78
2023-01-10T15:02:24.082Z,78.95
2023-01-10T15:05:07.894Z,79.21
2023-01-10T15:07:35.825Z,79.03
2023-01-10T15:10:21.845Z,78.95
2023-01-10T15:12:52.396Z,79.34
2023-01-10T15:15:20.678Z,79.20
2023-01-10T15:17:49.853Z,79.41
2023-01-10T15:20:18.132Z,79.44
2023-01-10T15:22:51.827Z,79.58
2023-01-10T15:25:18.604Z,79.39
2023-01-10T15:27:47.494Z,79.49
2023-01-10T15:30:29.581Z,79.52
2023-01-10T15:33:01.176Z,79.50
2023-01-10T15:35:36.076Z,79.59
2023-01-10T15:38:21.070Z,79.76
2023-01-10T15:40:59.180Z,79.91
2023-01-10T15:43:36.745Z,79.64
2023-01-10T15:46:09.039Z,79.87
2023-01-10T15:48:36.723Z,79.93
2023-01-10T15:51:28.561Z,79.69
2023-01-10T15:54:28.700Z,79.96
2023-01-10T15:57:01.139Z,80.03
2023-01-10T15:59:34.031Z,80.09
2023-01-10T16:16:16.581Z,80.06
2023-01-10T16:18:43.499Z,80.10
2023-01-10T16:21:11.693Z,79.76
2023-01-10T16:23:44.185Z,79.95
2023-01-10T16:26:10.951Z,79.91
2023-01-10T16:28:38.203Z,80.02
2023-01-10T16:31:07.044Z,79.99
2023-01-10T16:33:34.320Z,79.62
2023-01-10T16:36:01.170Z,79.71
2023-01-10T16:38:29.416Z,79.51
2023-01-10T16:41:21.234Z,79.65
2023-01-10T16:43:51.998Z,79.70
2023-01-10T16:46:18.756Z,79.31
2023-01-10T16:48:50.303Z,79.22
2023-01-10T16:51:21.931Z,79.45
2023-01-10T16:54:05.499Z,79.26
2023-01-10T16:56:33.778Z,79.43
2023-01-10T16:59:01.400Z,79.33
2023-01-10T17:01:37.718Z,79.17
2023-01-10T17:04:15.818Z,78.92
2023-01-10T17:06:43.006Z,78.98
2023-01-10T17:09:36.150Z,78.83
2023-01-10T17:12:06.905Z,78.72
2023-01-10T17:14:35.592Z,78.76
2023-01-10T17:17:05.665Z,79.01
2023-01-10T17:19:32.478Z,78.55
2023-01-10T17:22:00.480Z,78.65
2023-01-10T17:24:29.744Z,78.72
2023-01-10T17:27:03.677Z,78.54
2023-01-10T17:30:01.278Z,78.52
2023-01-10T17:32:29.975Z,78.40
2023-01-10T17:34:56.720Z,78.67
2023-01-10T17:37:23.459Z,78.31
2023-01-10T17:39:50.137Z,78.45
2023-01-10T17:42:20.069Z,78.25
2023-01-10T17:44:46.778Z,78.48
2023-01-10T17:47:13.856Z,78.45
2023-01-10T17:49:42.092Z,78.23
2023-01-10T17:52:09.046Z,78.34
2023-01-10T17:54:36.641Z,78.37
2023-01-10T17:57:04.500Z,78.13
2023-01-10T17:59:31.451Z,78.02
2023-01-10T18:01:58.576Z,77.78
2023-01-10T18:04:25.547Z,78.13
2023-01-10T18:06:52.386Z,78.00
2023-01-10T18:09:22.205Z,78.06
2023-01-10T18:11:51.753Z,77.71
2023-01-10T18:14:36.932Z,77.82
2023-01-10T18:17:13.369Z,77.89
2023-01-10T18:19:41.324Z,77.84
2023-01-10T18:22:27.549Z,78.14
2023-01-10T18:24:56.065Z,77.72
2023-01-10T18:27:26.908Z,77.84
2023-01-10T18:29:53.711Z,78.29
2023-01-10T18:32:22.058Z,77.96
2023-01-10T18:34:48.938Z,77.92
2023-01-10T18:37:16.918Z,78.01
2023-01-10T18:39:43.866Z,78.13
2023-01-10T18:42:11.433Z,78.08
2023-01-10T18:44:38.682Z,78.32
2023-01-10T18:47:09.215Z,78.13
2023-01-10T18:49:35.934Z,78.12
2023-01-10T18:52:02.638Z,78.35
2023-01-10T18:54:29.359Z,78.14
2023-01-10T18:56:56.330Z,78.40
2023-01-10T18:59:23.249Z,78.25
2023-01-10T19:01:50.161Z,78.42
2023-01-10T19:04:18.656Z,78.30
2023-01-10T19:06:45.906Z,78.14
2023-01-10T19:09:12.686Z,78.22
2023-01-10T19:11:39.429Z,78.66
2023-01-10T19:14:06.515Z,78.58
2023-01-10T19:16:33.282Z,78.29
2023-01-10T19:19:05.935Z,78.71
2023-01-10T19:21:33.914Z,78.63
2023-01-10T19:24:03.966Z,78.53
2023-01-10T19:26:31.034Z,78.38
2023-01-10T19:28:57.930Z,78.56
2023-01-10T19:31:27.137Z,78.72
2023-01-10T19:33:54.331Z,78.71
2023-01-10T19:36:24.126Z,78.51
2023-01-10T19:38:58.377Z,78.81
2023-01-10T19:41:26.750Z,78.55
2023-01-10T19:44:01.580Z,78.43
2023-01-10T19:46:31.668Z,78.61
2023-01-10T19:48:58.889Z,78.41
2023-01-10T19:51:25.637Z,78.47
2023-01-10T19:53:52.277Z,78.34
2023-01-10T19:56:23.122Z,78.63
2023-01-10T19:58:50.284Z,78.43
2023-01-10T20:01:20.064Z,78.49
2023-01-10T20:03:47.948Z,78.14
2023-01-10T20:06:18.042Z,78.13
2023-01-10T20:08:45.621Z,77.94
2023-01-10T20:11:12.875Z,78.11
2023-01-10T20:13:45.139Z,77.96
2023-01-10T20:16:13.498Z,78.06
2023-01-10T20:18:41.126Z,78.25
2023-01-10T20:21:10.221Z,78.04
2023-01-10T20:23:38.251Z,77.80
2023-01-10T20:26:12.496Z,77.94
2023-01-10T20:28:40.017Z,78.02
2023-01-10T20:31:16.038Z,78.11
2023-01-10T20:33:45.548Z,78.02
2023-01-10T20:36:15.606Z,78.08
2023-01-10T20:38:42.329Z,78.18
2023-01-10T20:41:14.486Z,78.03
2023-01-10T20:43:41.680Z,78.19
2023-01-10T23:16:32.088Z,77.32
2023-01-10T23:20:42.269Z,77.35
2023-01-10T23:59:32.035Z,76.47
